Portada
METAR-TAF:

METAR-TAF

Aeroports :

Patna, Índia

latitud: 25-36N, longitud: 085-06E, altitud: 51 m

Observació

L'informe es va fer fa 37 minuts, a les 04:00 UTC
Vent 10 kt del Oest
Temperatura 26°C
Humitat 32%
Pressió 1012 hPa
Visibilitat: 5000 m
calitja

METAR: VEPT 230400Z 26010KT 5000 HZ NSC 26/08 Q1012 NOSIG

Hora: 10:07 (04:37 UTC)

Pronòstic

L'informe es va fer fa 2 hores i 37 minuts, a les 02:00 UTC
Pronòstic vàlid del 23 a les 03 UTC al 23 a les 12 UTC
Vent 10 kt del Oest
Visibilitat: 4500 m
calitja
Evolucionant progressivament
l' 23 a les 07 UTC al 23 a les 09 UTC
Visibilitat: 5500 m
Escasses núvols a una alçada de 2000 ft
calitja

TAF: VEPT 230200Z 2303/2312 27010KT 4500 HZ NSC BECMG 2307/2309 5500 HZ FEW020

Observacions i pronòstics meteorològics de més de 4000 aeroports (METAR i TAF).

Les estacions disponibles són els punts grocs i vermells al mapa.

Posi el ratolí al punt desitjat per veure el nom de l'estació.

Feu clic per veure les observacions i els pronòstics meteorològics.

Per canviar el mapa: feu clic els botons verds amb una creu de color negre per apropar; al botó verd amb un guió per allunyar la imatge; o en les fletxes verdes per a mapes adjacents.


METAR-TAF: